createdAt,value
2018-04-19T00:01:59.752Z,99.90
2018-04-19T00:04:26.245Z,99.90
2018-04-19T00:06:52.729Z,99.90
2018-04-19T00:09:19.220Z,99.90
2018-04-19T00:11:45.704Z,99.90
2018-04-19T00:14:12.932Z,99.90
2018-04-19T00:16:39.479Z,99.90
2018-04-19T00:19:06.031Z,99.90
2018-04-19T00:21:32.512Z,99.90
2018-04-19T00:23:59.772Z,99.90
2018-04-19T00:26:27.056Z,99.90
2018-04-19T00:28:53.613Z,99.90
2018-04-19T00:31:20.105Z,99.90
2018-04-19T00:33:47.295Z,99.90
2018-04-19T00:36:13.790Z,99.90
2018-04-19T00:38:41.074Z,99.90
2018-04-19T00:41:07.567Z,99.90
2018-04-19T00:43:34.049Z,99.90
2018-04-19T00:46:00.592Z,99.90
2018-04-19T00:48:27.048Z,99.90
2018-04-19T00:50:53.564Z,99.90
2018-04-19T00:53:20.065Z,99.90
2018-04-19T00:55:46.607Z,99.90
2018-04-19T00:58:13.072Z,99.90
2018-04-19T01:00:39.584Z,99.90
2018-04-19T01:03:06.090Z,99.90
2018-04-19T01:05:32.559Z,99.90
2018-04-19T01:07:59.079Z,99.90
2018-04-19T01:10:25.563Z,99.90
2018-04-19T01:12:52.818Z,99.90
2018-04-19T01:15:20.071Z,99.90
2018-04-19T01:17:47.279Z,99.90
2018-04-19T01:20:13.828Z,99.90
2018-04-19T01:22:40.343Z,99.90
2018-04-19T01:25:06.909Z,99.90
2018-04-19T01:27:33.383Z,99.90
2018-04-19T01:30:00.635Z,99.90
2018-04-19T01:32:27.828Z,99.90
2018-04-19T01:34:54.284Z,99.90
2018-04-19T01:37:20.842Z,99.90
2018-04-19T01:39:47.351Z,99.90
2018-04-19T01:42:13.831Z,99.90
2018-04-19T01:44:40.319Z,99.90
2018-04-19T01:47:06.824Z,99.90
2018-04-19T01:49:34.048Z,99.90
2018-04-19T01:52:00.560Z,99.90
2018-04-19T01:54:27.051Z,99.90
2018-04-19T01:56:54.312Z,99.90
2018-04-19T01:59:21.573Z,99.90
2018-04-19T02:01:48.818Z,99.90
2018-04-19T02:04:16.065Z,99.90
2018-04-19T02:06:42.564Z,99.90
2018-04-19T02:09:09.078Z,99.90
2018-04-19T02:11:35.564Z,99.90
2018-04-19T02:14:02.091Z,99.90
2018-04-19T02:16:28.579Z,99.90
2018-04-19T02:18:55.820Z,99.90
2018-04-19T02:21:23.060Z,99.90
2018-04-19T02:23:49.575Z,99.90
2018-04-19T02:26:16.058Z,99.90
2018-04-19T02:28:43.362Z,99.90
2018-04-19T02:31:09.877Z,99.90
2018-04-19T02:33:36.387Z,99.90
2018-04-19T02:36:03.709Z,99.90
2018-04-19T02:38:30.187Z,99.90
2018-04-19T02:40:57.442Z,99.90
2018-04-19T02:43:23.982Z,99.90
2018-04-19T02:45:51.213Z,99.90
2018-04-19T02:48:17.719Z,99.90
2018-04-19T02:50:44.228Z,99.90
2018-04-19T02:53:11.495Z,99.90
2018-04-19T02:55:37.983Z,99.90
2018-04-19T02:58:04.509Z,99.90
2018-04-19T03:00:31.041Z,99.90
2018-04-19T03:02:57.591Z,99.90
2018-04-19T03:05:24.089Z,99.90
2018-04-19T03:07:50.562Z,99.90
2018-04-19T03:10:17.053Z,99.90
2018-04-19T03:12:44.315Z,99.90
2018-04-19T03:15:11.552Z,99.90
2018-04-19T03:17:38.029Z,99.90
2018-04-19T03:20:04.564Z,99.90
2018-04-19T03:22:31.053Z,99.90
2018-04-19T03:24:57.624Z,99.90
2018-04-19T03:27:24.908Z,99.90
2018-04-19T03:29:51.437Z,99.90
2018-04-19T03:32:17.904Z,99.90
2018-04-19T03:34:44.424Z,99.90
2018-04-19T03:37:10.965Z,99.90
2018-04-19T03:39:37.465Z,99.90
2018-04-19T03:42:04.752Z,99.90
2018-04-19T03:44:31.254Z,99.90
2018-04-19T03:46:57.734Z,99.90
2018-04-19T03:49:24.251Z,99.90
2018-04-19T03:51:50.771Z,99.90
2018-04-19T03:54:17.988Z,99.90
2018-04-19T03:56:44.509Z,99.90
2018-04-19T03:59:10.992Z,99.90
2018-04-19T04:01:37.480Z,99.90
2018-04-19T04:04:03.996Z,99.90
2018-04-19T04:06:31.228Z,99.90
2018-04-19T04:08:57.877Z,99.90
2018-04-19T04:11:24.396Z,99.90
2018-04-19T04:13:50.890Z,99.90
2018-04-19T04:16:29.595Z,99.90
2018-04-19T04:19:08.144Z,99.90
2018-04-19T04:21:46.864Z,99.90
2018-04-19T04:24:13.356Z,99.90
2018-04-19T04:26:39.906Z,99.90
2018-04-19T04:29:07.199Z,99.90
2018-04-19T04:31:33.713Z,99.90
2018-04-19T04:34:00.926Z,99.90
2018-04-19T04:36:27.493Z,99.90
2018-04-19T04:38:54.049Z,99.90
2018-04-19T04:41:21.285Z,99.90
2018-04-19T04:43:47.807Z,99.90
2018-04-19T04:46:14.313Z,99.90
2018-04-19T04:48:40.806Z,99.90
2018-04-19T04:51:07.421Z,99.90
2018-04-19T04:53:33.933Z,99.90
2018-04-19T04:56:00.427Z,99.90
2018-04-19T04:58:26.995Z,99.90
2018-04-19T05:00:53.449Z,99.90
2018-04-19T05:03:19.933Z,99.90
2018-04-19T05:05:46.483Z,99.90
2018-04-19T05:08:13.773Z,99.90
2018-04-19T05:10:40.256Z,99.90
2018-04-19T05:13:06.772Z,99.90
2018-04-19T05:15:33.279Z,99.90
2018-04-19T05:18:00.540Z,99.90
2018-04-19T05:20:27.135Z,99.90
2018-04-19T05:22:53.602Z,99.90
2018-04-19T05:25:20.856Z,99.90
2018-04-19T05:27:48.136Z,99.90
2018-04-19T05:30:14.692Z,99.90
2018-04-19T05:32:41.177Z,99.90
2018-04-19T05:35:07.731Z,99.90
2018-04-19T05:37:34.997Z,99.90
2018-04-19T05:40:02.332Z,99.90
2018-04-19T05:42:29.571Z,99.90
2018-04-19T05:44:56.038Z,99.90
2018-04-19T05:47:23.249Z,99.90
2018-04-19T05:49:49.763Z,99.90
2018-04-19T05:52:16.246Z,99.90
2018-04-19T05:54:42.780Z,99.90
2018-04-19T05:57:09.327Z,99.90
2018-04-19T05:59:35.826Z,99.90
2018-04-19T06:02:02.420Z,99.90
2018-04-19T06:04:28.968Z,99.90
2018-04-19T06:06:56.208Z,99.90
2018-04-19T06:09:22.702Z,99.90
2018-04-19T06:11:49.212Z,99.50
2018-04-19T06:14:16.503Z,79.90
2018-04-19T06:16:43.016Z,79.50
2018-04-19T06:19:10.413Z,68.70
2018-04-19T06:21:36.986Z,68.60
2018-04-19T06:24:03.477Z,64.40
2018-04-19T06:26:30.094Z,61.30
2018-04-19T06:28:57.874Z,55.80
2018-04-19T06:31:24.344Z,55.70
2018-04-19T06:33:50.835Z,52.60
2018-04-19T06:36:18.097Z,48.90
2018-04-19T06:38:44.603Z,48.80
2018-04-19T06:41:11.171Z,49.40
2018-04-19T06:43:38.402Z,44.50
2018-04-19T06:46:04.983Z,44.50
2018-04-19T06:48:31.496Z,43.40
2018-04-19T06:50:58.001Z,41.00
2018-04-19T06:53:25.633Z,38.50
2018-04-19T06:55:52.162Z,38.90
2018-04-19T06:58:18.685Z,38.50
2018-04-19T07:00:45.915Z,36.90
2018-04-19T07:03:12.430Z,36.90
2018-04-19T07:05:38.942Z,35.60
2018-04-19T07:08:05.429Z,34.60
2018-04-19T07:10:31.977Z,34.40
2018-04-19T07:12:58.592Z,34.50
2018-04-19T07:15:25.092Z,34.20
2018-04-19T07:17:51.614Z,33.30
2018-04-19T07:20:18.874Z,32.70
2018-04-19T07:22:46.141Z,31.60
2018-04-19T07:25:13.774Z,29.10
2018-04-19T07:27:40.333Z,29.50
2018-04-19T07:30:07.591Z,29.90
2018-04-19T07:32:34.856Z,29.20
2018-04-19T07:35:02.085Z,29.20
2018-04-19T07:37:28.580Z,29.10
2018-04-19T07:39:55.108Z,30.00
2018-04-19T07:42:21.590Z,28.10
2018-04-19T07:44:48.053Z,27.30
2018-04-19T07:47:15.315Z,28.60
2018-04-19T07:49:42.545Z,27.00
2018-04-19T07:52:09.062Z,26.90
2018-04-19T07:54:35.605Z,25.90
2018-04-19T07:57:02.100Z,25.70
2018-04-19T07:59:28.580Z,25.60
2018-04-19T08:01:55.173Z,25.10
2018-04-19T08:04:22.390Z,25.00
2018-04-19T08:06:49.592Z,23.60
2018-04-19T08:09:23.114Z,23.60
2018-04-19T08:11:49.598Z,24.60
2018-04-19T08:14:16.067Z,23.70
2018-04-19T08:16:43.287Z,24.60
2018-04-19T08:19:09.755Z,24.60
2018-04-19T08:21:37.010Z,23.50
2018-04-19T08:24:04.306Z,23.60
2018-04-19T08:26:31.204Z,23.60
2018-04-19T08:28:58.480Z,23.30
2018-04-19T08:31:25.039Z,23.30
2018-04-19T08:33:51.564Z,23.20
2018-04-19T08:36:18.087Z,22.80
2018-04-19T08:38:45.379Z,22.30
2018-04-19T08:41:12.001Z,22.40
2018-04-19T08:43:38.494Z,21.50
2018-04-19T08:46:05.217Z,22.10
2018-04-19T08:48:31.796Z,21.50
2018-04-19T08:50:58.401Z,20.70
2018-04-19T08:53:24.914Z,22.10
2018-04-19T08:55:51.457Z,21.80
2018-04-19T08:58:17.969Z,21.40
2018-04-19T09:00:45.413Z,24.70
2018-04-19T09:03:11.906Z,23.80
2018-04-19T09:05:39.361Z,23.80
2018-04-19T09:08:05.853Z,22.70
2018-04-19T09:10:33.125Z,23.20
2018-04-19T09:13:01.100Z,22.20
2018-04-19T09:15:28.413Z,23.30
2018-04-19T09:17:54.984Z,23.20
2018-04-19T09:20:22.219Z,24.30
2018-04-19T09:22:48.853Z,24.30
2018-04-19T09:25:16.927Z,24.00
2018-04-19T09:27:43.447Z,23.90
2018-04-19T09:30:10.072Z,24.20
2018-04-19T09:32:36.642Z,22.30
2018-04-19T09:35:03.196Z,23.40
2018-04-19T09:37:29.708Z,23.50
2018-04-19T09:39:56.286Z,22.30
2018-04-19T09:42:22.815Z,22.00
2018-04-19T09:44:49.324Z,21.80
2018-04-19T09:47:16.781Z,21.40
2018-04-19T09:49:43.307Z,22.20
2018-04-19T09:52:09.877Z,22.20
2018-04-19T09:54:36.387Z,21.60
2018-04-19T09:57:03.841Z,22.60
2018-04-19T09:59:31.171Z,21.90
2018-04-19T10:02:03.569Z,20.70
2018-04-19T10:04:33.794Z,21.30
2018-04-19T10:07:09.859Z,21.10
2018-04-19T10:09:36.445Z,21.10
2018-04-19T10:12:03.690Z,21.10
2018-04-19T10:14:30.152Z,21.20
2018-04-19T10:16:56.728Z,20.30
2018-04-19T10:19:23.317Z,20.30
2018-04-19T10:21:50.550Z,22.70
2018-04-19T10:24:17.088Z,21.90
2018-04-19T10:26:44.415Z,20.70
2018-04-19T10:29:11.671Z,23.90
2018-04-19T10:31:39.029Z,21.60
2018-04-19T10:34:06.274Z,22.80
2018-04-19T10:36:32.814Z,21.30
2018-04-19T10:39:00.065Z,21.40
2018-04-19T10:41:26.553Z,21.10
2018-04-19T10:43:53.089Z,20.60
2018-04-19T10:46:19.580Z,21.10
2018-04-19T10:48:46.103Z,21.30
2018-04-19T10:51:12.601Z,20.50
2018-04-19T10:53:39.318Z,21.00
2018-04-19T10:56:05.788Z,21.20
2018-04-19T10:58:32.330Z,20.10
2018-04-19T11:00:58.939Z,21.40
2018-04-19T11:03:25.460Z,21.40
2018-04-19T11:05:51.940Z,20.90
2018-04-19T11:08:18.449Z,21.80
2018-04-19T11:10:45.015Z,19.80
2018-04-19T11:13:12.010Z,19.50
2018-04-19T11:15:38.560Z,21.40
2018-04-19T11:18:06.154Z,21.50
2018-04-19T11:20:33.405Z,21.80
2018-04-19T11:23:00.743Z,20.80
2018-04-19T11:25:27.253Z,20.80
2018-04-19T11:27:53.739Z,21.00
2018-04-19T11:30:21.383Z,22.70
2018-04-19T11:32:48.164Z,23.10
2018-04-19T11:35:14.682Z,23.50
2018-04-19T11:37:41.208Z,24.00
2018-04-19T11:40:07.751Z,22.80
2018-04-19T11:42:34.378Z,22.10
2018-04-19T11:45:02.945Z,45.90
2018-04-19T11:47:29.451Z,40.20
2018-04-19T11:49:55.965Z,34.50
2018-04-19T11:52:22.516Z,29.50
2018-04-19T11:54:49.815Z,24.10
2018-04-19T11:57:16.323Z,24.00
2018-04-19T11:59:43.612Z,24.90
2018-04-19T12:02:10.108Z,24.80
2018-04-19T12:04:38.208Z,26.60
2018-04-19T12:07:04.709Z,26.60
2018-04-19T12:09:31.211Z,24.50
2018-04-19T12:11:58.569Z,25.50
2018-04-19T12:14:25.985Z,25.40
2018-04-19T12:16:53.217Z,23.10
2018-04-19T12:19:20.435Z,22.10
2018-04-19T12:21:46.988Z,22.00
2018-04-19T12:24:13.515Z,22.80
2018-04-19T12:26:40.093Z,22.20
2018-04-19T12:29:07.450Z,23.50
2018-04-19T12:31:33.967Z,23.40
2018-04-19T12:34:00.441Z,23.70
2018-04-19T12:36:27.709Z,21.80
2018-04-19T12:38:54.962Z,24.60
2018-04-19T12:41:22.188Z,23.50
2018-04-19T12:43:49.528Z,23.50
2018-04-19T12:46:16.065Z,23.10
2018-04-19T12:48:42.580Z,22.50
2018-04-19T12:51:09.094Z,22.70
2018-04-19T12:53:36.351Z,22.00
2018-04-19T12:56:04.204Z,23.00
2018-04-19T12:58:30.714Z,23.00
2018-04-19T13:00:57.176Z,22.50
2018-04-19T13:03:24.206Z,22.30
2018-04-19T13:05:50.783Z,22.60
2018-04-19T13:08:18.019Z,22.60
2018-04-19T13:10:45.488Z,22.60
2018-04-19T13:13:12.043Z,22.90
2018-04-19T13:15:38.626Z,22.70
2018-04-19T13:18:05.283Z,22.40
2018-04-19T13:20:32.358Z,23.40
2018-04-19T13:22:58.977Z,24.30
2018-04-19T13:25:25.823Z,23.00
2018-04-19T13:27:53.392Z,23.40
2018-04-19T13:30:20.676Z,23.80
2018-04-19T13:32:47.974Z,24.70
2018-04-19T13:35:14.560Z,24.60
2018-04-19T13:37:41.159Z,24.60
2018-04-19T13:40:07.668Z,25.00
2018-04-19T13:42:34.980Z,25.10
2018-04-19T13:45:01.525Z,25.00
2018-04-19T13:47:28.028Z,24.90
2018-04-19T13:49:54.629Z,25.60
2018-04-19T13:52:21.192Z,24.60
2018-04-19T13:54:49.253Z,25.50
2018-04-19T13:57:17.552Z,25.80
2018-04-19T13:59:44.787Z,26.10
2018-04-19T14:02:12.018Z,25.60
2018-04-19T14:04:38.583Z,25.10
2018-04-19T14:07:05.833Z,26.00
2018-04-19T14:09:33.185Z,25.60
2018-04-19T14:12:00.525Z,25.50
2018-04-19T14:14:27.005Z,25.60
2018-04-19T14:16:54.307Z,26.90
2018-04-19T14:19:20.862Z,26.90
2018-04-19T14:21:47.718Z,27.10
2018-04-19T14:24:14.258Z,26.90
2018-04-19T14:26:40.792Z,26.90
2018-04-19T14:29:07.319Z,27.30
2018-04-19T14:31:33.795Z,26.80
2018-04-19T14:34:00.347Z,27.40
2018-04-19T14:36:27.602Z,27.20
2018-04-19T14:38:54.894Z,27.90
2018-04-19T14:41:21.460Z,27.90
2018-04-19T14:43:47.952Z,28.40
2018-04-19T14:46:14.458Z,28.60
2018-04-19T14:48:41.001Z,30.10
2018-04-19T14:51:07.514Z,30.00
2018-04-19T14:53:34.013Z,29.00
2018-04-19T14:56:00.550Z,28.90
2018-04-19T14:58:27.063Z,28.80
2018-04-19T15:00:54.345Z,28.70
2018-04-19T15:03:20.838Z,28.70
2018-04-19T15:05:47.338Z,29.30
2018-04-19T15:08:13.876Z,29.60
2018-04-19T15:10:40.361Z,29.80
2018-04-19T15:13:08.843Z,29.30
2018-04-19T15:15:35.355Z,29.90
2018-04-19T15:18:01.857Z,30.10
2018-04-19T15:20:28.348Z,31.20
2018-04-19T15:22:54.840Z,30.40
2018-04-19T15:25:21.376Z,30.00
2018-04-19T15:27:48.536Z,29.90
2018-04-19T15:30:15.060Z,30.20
2018-04-19T15:32:42.356Z,31.40
2018-04-19T15:35:08.842Z,32.00
2018-04-19T15:37:36.148Z,30.20
2018-04-19T15:40:03.503Z,30.20
2018-04-19T15:42:30.049Z,31.10
2018-04-19T15:44:56.552Z,31.60
2018-04-19T15:47:23.049Z,33.20
2018-04-19T15:49:49.518Z,33.00
2018-04-19T15:52:16.762Z,33.10
2018-04-19T15:54:44.098Z,34.20
2018-04-19T15:57:10.612Z,33.50
2018-04-19T15:59:37.969Z,33.30
2018-04-19T16:02:04.497Z,33.70
2018-04-19T16:04:31.711Z,34.30
2018-04-19T16:06:58.235Z,34.30
2018-04-19T16:09:24.723Z,33.80
2018-04-19T16:11:53.081Z,33.70
2018-04-19T16:14:17.811Z,34.10
2018-04-19T16:16:44.313Z,34.70
2018-04-19T16:19:11.570Z,35.90
2018-04-19T16:21:38.815Z,36.10
2018-04-19T16:24:05.322Z,36.10
2018-04-19T16:26:31.816Z,35.70
2018-04-19T16:28:58.318Z,36.10
2018-04-19T16:31:24.912Z,36.80
2018-04-19T16:33:51.444Z,37.60
2018-04-19T16:36:17.981Z,37.50
2018-04-19T16:38:44.554Z,37.90
2018-04-19T16:41:11.020Z,37.80
2018-04-19T16:43:37.512Z,38.10
2018-04-19T16:46:04.053Z,38.50
2018-04-19T16:48:30.567Z,38.50
2018-04-19T16:50:57.810Z,39.40
2018-04-19T16:53:25.079Z,39.20
2018-04-19T16:55:52.312Z,40.20
2018-04-19T16:58:19.993Z,40.20
2018-04-19T17:00:47.333Z,40.70
2018-04-19T17:03:13.859Z,40.70
2018-04-19T17:05:40.414Z,41.00
2018-04-19T17:08:06.952Z,41.50
2018-04-19T17:10:33.453Z,41.30
2018-04-19T17:12:59.928Z,41.70
2018-04-19T17:15:26.461Z,42.20
2018-04-19T17:17:52.968Z,42.40
2018-04-19T17:20:19.449Z,42.60
2018-04-19T17:22:45.960Z,42.50
2018-04-19T17:25:12.438Z,42.80
2018-04-19T17:27:39.680Z,44.00
2018-04-19T17:30:06.218Z,43.50
2018-04-19T17:32:33.485Z,43.60
2018-04-19T17:35:04.538Z,43.60
2018-04-19T17:37:31.885Z,43.90
2018-04-19T17:39:58.391Z,43.90
2018-04-19T17:42:24.888Z,44.30
2018-04-19T17:44:52.119Z,45.50
2018-04-19T17:47:18.788Z,45.50
2018-04-19T17:49:45.363Z,46.10
2018-04-19T17:52:12.122Z,46.20
2018-04-19T17:54:38.609Z,45.90
2018-04-19T17:57:05.824Z,47.30
2018-04-19T17:59:32.365Z,47.30
2018-04-19T18:01:58.972Z,47.50
2018-04-19T18:04:25.447Z,47.90
2018-04-19T18:06:52.773Z,49.10
2018-04-19T18:09:19.255Z,49.10
2018-04-19T18:11:45.792Z,49.40
2018-04-19T18:14:12.429Z,50.70
2018-04-19T18:16:39.685Z,49.80
2018-04-19T18:19:06.269Z,49.70
2018-04-19T18:21:32.819Z,51.50
2018-04-19T18:23:59.333Z,54.20
2018-04-19T18:26:26.645Z,59.10
2018-04-19T18:28:53.193Z,59.00
2018-04-19T18:31:19.711Z,60.90
2018-04-19T18:33:46.269Z,63.10
2018-04-19T18:36:12.750Z,64.10
2018-04-19T18:38:40.047Z,66.70
2018-04-19T18:41:06.546Z,66.50
2018-04-19T18:43:33.806Z,66.50
2018-04-19T18:46:01.876Z,69.00
2018-04-19T18:48:29.139Z,71.20
2018-04-19T18:50:55.676Z,71.10
2018-04-19T18:53:22.181Z,73.30
2018-04-19T18:55:48.693Z,75.60
2018-04-19T18:58:15.229Z,77.10
2018-04-19T19:00:41.722Z,78.70
2018-04-19T19:03:08.947Z,81.50
2018-04-19T19:05:35.606Z,81.10
2018-04-19T19:08:02.088Z,83.30
2018-04-19T19:10:28.620Z,86.70
2018-04-19T19:12:55.177Z,89.00
2018-04-19T19:29:00.815Z,99.90
2018-04-19T19:31:27.633Z,99.70
2018-04-19T19:33:55.088Z,99.00
2018-04-19T19:36:21.783Z,99.00
2018-04-19T19:38:48.522Z,98.90
2018-04-19T19:41:15.237Z,99.90
2018-04-19T19:43:42.744Z,99.90
2018-04-19T19:46:09.520Z,99.90
2018-04-19T19:48:36.236Z,99.90
2018-04-19T19:51:02.919Z,99.90
2018-04-19T19:53:29.657Z,99.90
2018-04-19T19:55:56.358Z,99.90
2018-04-19T19:58:23.086Z,99.90
2018-04-19T20:00:49.806Z,99.90
2018-04-19T20:03:17.256Z,99.90
2018-04-19T20:05:43.983Z,99.90
2018-04-19T20:08:10.738Z,99.90
2018-04-19T20:10:37.498Z,99.90
2018-04-19T20:13:04.962Z,99.90
2018-04-19T20:15:32.362Z,99.90
2018-04-19T20:17:59.071Z,99.90
2018-04-19T20:20:26.559Z,99.90
2018-04-19T20:22:53.280Z,99.90
2018-04-19T20:25:20.729Z,99.90
2018-04-19T20:27:48.143Z,99.90
2018-04-19T20:30:14.959Z,99.90
2018-04-19T20:32:41.648Z,99.90
2018-04-19T20:35:08.629Z,99.90
2018-04-19T20:37:35.405Z,99.90
2018-04-19T20:40:02.117Z,99.90
2018-04-19T20:42:28.885Z,99.90
2018-04-19T20:44:55.610Z,99.90
2018-04-19T20:47:23.115Z,99.90
2018-04-19T20:49:50.085Z,99.90
2018-04-19T20:52:16.842Z,99.90
2018-04-19T20:54:43.516Z,99.90
2018-04-19T20:57:10.370Z,99.90
2018-04-19T20:59:37.140Z,99.90
2018-04-19T21:02:03.957Z,99.90
2018-04-19T21:04:30.701Z,99.90
2018-04-19T21:06:58.179Z,99.90
2018-04-19T21:09:24.846Z,99.90
2018-04-19T21:11:51.580Z,99.90
2018-04-19T21:14:18.262Z,99.90
2018-04-19T21:16:45.021Z,99.90
2018-04-19T21:19:12.504Z,99.90
2018-04-19T21:21:39.200Z,99.90
2018-04-19T21:24:05.928Z,99.90
2018-04-19T21:26:32.843Z,99.90
2018-04-19T21:28:59.570Z,99.90
2018-04-19T21:31:26.997Z,99.90
2018-04-19T21:33:53.787Z,99.90
2018-04-19T21:36:20.590Z,99.90
2018-04-19T21:38:47.300Z,99.90
2018-04-19T21:41:14.046Z,99.90
2018-04-19T21:43:40.739Z,99.90
2018-04-19T21:46:07.412Z,99.90
2018-04-19T21:48:34.090Z,99.90
2018-04-19T21:51:02.579Z,99.90
2018-04-19T21:53:29.278Z,99.90
2018-04-19T21:55:56.103Z,99.90
2018-04-19T21:58:23.580Z,99.90
2018-04-19T22:00:51.040Z,99.90
2018-04-19T22:03:17.886Z,99.90
2018-04-19T22:05:44.630Z,99.90
2018-04-19T22:08:12.083Z,99.90
2018-04-19T22:10:39.506Z,99.90
2018-04-19T22:13:06.282Z,99.90
2018-04-19T22:15:33.741Z,99.90
2018-04-19T22:18:01.217Z,99.90
2018-04-19T22:20:28.727Z,99.90
2018-04-19T22:22:55.485Z,99.90
2018-04-19T22:25:22.176Z,99.90
2018-04-19T22:27:48.883Z,99.90
2018-04-19T22:30:16.734Z,99.90
2018-04-19T22:32:43.392Z,99.90
2018-04-19T22:35:10.065Z,99.90
2018-04-19T22:37:37.502Z,99.90
2018-04-19T22:40:04.290Z,99.90
2018-04-19T22:42:30.951Z,99.90
2018-04-19T22:44:57.607Z,99.90
2018-04-19T22:47:24.295Z,99.90
2018-04-19T22:49:51.697Z,99.90
2018-04-19T22:52:18.476Z,99.90
2018-04-19T22:54:45.174Z,99.90
2018-04-19T22:57:11.856Z,99.90
2018-04-19T22:59:38.525Z,99.90
2018-04-19T23:02:05.924Z,99.90
2018-04-19T23:04:32.585Z,99.90
2018-04-19T23:06:59.288Z,99.90
2018-04-19T23:09:26.846Z,99.90
2018-04-19T23:11:53.542Z,99.90
2018-04-19T23:14:20.192Z,99.90
2018-04-19T23:16:46.893Z,99.90
2018-04-19T23:19:13.570Z,99.90
2018-04-19T23:21:40.226Z,99.90
2018-04-19T23:24:06.906Z,99.90
2018-04-19T23:26:34.317Z,99.90
2018-04-19T23:29:00.982Z,99.90
2018-04-19T23:31:27.728Z,99.90
2018-04-19T23:33:54.404Z,99.90
2018-04-19T23:36:21.054Z,99.90
2018-04-19T23:38:47.831Z,99.90
2018-04-19T23:41:14.477Z,99.90
2018-04-19T23:43:41.163Z,99.90
2018-04-19T23:46:08.610Z,99.90
2018-04-19T23:48:35.268Z,99.90
2018-04-19T23:51:02.657Z,99.90
2018-04-19T23:53:29.317Z,99.90
2018-04-19T23:55:55.991Z,99.90
2018-04-19T23:58:22.640Z,99.90
